Time;durP1;ratioP1;P1;durP2;ratioP2;P2;SDS_P1;SDS_P2;PMS_P1;PMS_P2;Temp;Humidity;BMP_temperature;BMP_pressure;BME280_temperature;BME280_humidity;BME280_pressure;Samples;Min_cycle;Max_cycle;Signal;HPM_P1;HPM_P2
2022/03/21 00:00:55;;;;;;;558.03;513.37;;;;;;;0.53;47.06;96615.19;5055888;28;20267;-83
2022/03/21 00:03:25;;;;;;;586.93;538.43;;;;;;;0.09;48.01;96543.16;5073662;28;20185;-83
2022/03/21 00:05:51;;;;;;;589.60;537.83;;;;;;;0.48;47.51;96594.78;5056115;28;20223;-83
2022/03/21 00:08:18;;;;;;;1108.87;735.37;;;;;;;-0.18;47.37;96488.94;5073665;28;20186;-83
2022/03/21 00:10:45;;;;;;;1999.90;999.90;;;;;;;-0.14;48.03;96503.31;5055567;28;20213;-83
2022/03/21 00:13:15;;;;;;;1999.90;999.90;;;;;;;0.42;47.99;96603.00;5055654;28;20210;-83
2022/03/21 00:15:44;;;;;;;759.07;605.20;;;;;;;0.27;48.83;96584.13;5073664;28;20207;-83
2022/03/21 00:18:13;;;;;;;643.70;543.27;;;;;;;0.35;48.63;96602.56;5072805;28;20659;-83
2022/03/21 00:20:41;;;;;;;638.50;576.63;;;;;;;0.35;49.53;96597.38;5055166;28;20223;-83
2022/03/21 00:23:07;;;;;;;654.33;543.10;;;;;;;0.12;49.39;96559.31;5072804;28;20201;-83
2022/03/21 00:25:32;;;;;;;1133.10;733.17;;;;;;;-0.07;49.61;96545.94;5072547;28;20198;-83
2022/03/21 00:27:58;;;;;;;1065.80;689.10;;;;;;;0.09;49.16;96572.44;5054831;28;20170;-83
2022/03/21 00:30:27;;;;;;;549.70;447.07;;;;;;;-0.10;48.96;96538.41;5073246;28;20573;-83
2022/03/21 00:32:52;;;;;;;982.53;614.80;;;;;;;-0.08;49.30;96542.53;5055066;28;20170;-83
2022/03/21 00:35:19;;;;;;;1999.90;999.90;;;;;;;-0.57;50.06;96469.16;5073668;28;20208;-83
2022/03/21 00:37:45;;;;;;;1999.90;999.90;;;;;;;0.14;50.19;96587.69;5055243;28;20185;-83
2022/03/21 00:40:13;;;;;;;1999.90;999.90;;;;;;;0.12;50.36;96586.94;5073629;28;20147;-83
2022/03/21 00:42:41;;;;;;;1999.90;999.90;;;;;;;0.03;49.82;96570.28;5073307;28;20673;-83
2022/03/21 00:45:16;;;;;;;1999.90;999.90;;;;;;;0.09;50.63;96579.41;5073308;28;20202;-83
2022/03/21 00:47:43;;;;;;;1999.90;999.90;;;;;;;0.08;50.72;96582.94;5085262;28;20222;-82
2022/03/21 00:50:10;;;;;;;1999.90;999.90;;;;;;;-0.14;50.78;96544.72;5073116;28;20198;-83
2022/03/21 00:52:47;;;;;;;1999.90;999.90;;;;;;;0.07;50.23;96578.69;5073515;28;20159;-83
2022/03/21 00:55:13;;;;;;;269.67;195.37;;;;;;;0.06;50.38;96574.44;5072836;28;20164;-83
2022/03/21 00:57:40;;;;;;;300.77;249.33;;;;;;;0.01;50.95;96572.13;5072667;28;20166;-83
2022/03/21 01:00:12;;;;;;;221.60;152.13;;;;;;;-0.23;51.18;96540.16;5080356;28;20542;-83
2022/03/21 01:02:38;;;;;;;130.30;76.87;;;;;;;-0.35;51.21;96515.97;5053695;28;20622;-83
2022/03/21 01:05:05;;;;;;;103.27;36.90;;;;;;;-0.39;51.87;96515.31;5053853;28;20189;-83
2022/03/21 01:07:30;;;;;;;74.07;32.37;;;;;;;-0.06;52.20;96570.91;5054058;28;20174;-83
2022/03/21 01:09:56;;;;;;;90.67;33.70;;;;;;;-0.05;52.27;96559.63;5054286;28;20340;-83
2022/03/21 01:12:22;;;;;;;82.17;29.70;;;;;;;-0.04;52.40;96562.09;5072510;28;20174;-83
2022/03/21 01:14:47;;;;;;;79.80;31.53;;;;;;;-0.07;52.34;96553.72;5054469;28;20175;-83
2022/03/21 01:17:14;;;;;;;85.70;29.27;;;;;;;-0.58;52.60;96483.03;5054448;28;20163;-83
2022/03/21 01:19:40;;;;;;;60.60;26.53;;;;;;;-0.43;52.68;96500.09;5072380;28;20177;-83
2022/03/21 01:22:08;;;;;;;67.57;23.00;;;;;;;-0.01;51.89;96556.72;5054527;28;20167;-83
2022/03/21 01:24:35;;;;;;;60.83;28.07;;;;;;;-0.01;51.48;96542.97;5072402;28;20541;-84
2022/03/21 01:27:02;;;;;;;69.13;27.03;;;;;;;-0.35;51.89;96487.50;5054264;28;20651;-84
2022/03/21 01:29:28;;;;;;;44.27;19.80;;;;;;;0.09;51.63;96551.72;5071681;28;20162;-84
2022/03/21 01:31:54;;;;;;;43.07;19.20;;;;;;;-0.14;50.49;96508.47;5072211;28;20197;-83
2022/03/21 01:34:19;;;;;;;35.63;15.57;;;;;;;-0.39;49.94;96455.81;5072131;28;20710;-83
2022/03/21 01:36:45;;;;;;;44.50;18.57;;;;;;;-0.19;50.11;96480.34;5054302;28;20171;-83
2022/03/21 01:39:10;;;;;;;70.67;31.03;;;;;;;0.30;50.55;96546.84;5054147;28;20172;-84
2022/03/21 01:41:36;;;;;;;37.83;17.40;;;;;;;0.28;49.32;96536.59;5071996;28;20257;-84
2022/03/21 01:44:04;;;;;;;35.60;16.33;;;;;;;0.26;49.14;96541.03;5072408;28;20162;-83
2022/03/21 01:46:31;;;;;;;31.93;14.67;;;;;;;-0.03;48.94;96495.66;5072130;28;20250;-83
2022/03/21 01:48:58;;;;;;;35.13;15.27;;;;;;;0.23;48.49;96540.44;5072054;28;20169;-83
2022/03/21 01:51:25;;;;;;;41.23;16.70;;;;;;;-0.13;49.18;96481.69;5053914;28;20290;-84
2022/03/21 01:56:41;;;;;;;32.67;14.00;;;;;;;-0.22;49.11;96459.03;5070298;28;20180;-84
2022/03/21 01:59:12;;;;;;;40.20;16.87;;;;;;;0.25;49.13;96536.00;5053517;28;20214;-84
2022/03/21 02:01:38;;;;;;;59.07;21.40;;;;;;;0.20;48.96;96538.06;5077674;28;20159;-85
2022/03/21 02:04:04;;;;;;;57.17;21.47;;;;;;;-0.04;48.90;96502.59;5079547;28;20543;-85
2022/03/21 02:06:30;;;;;;;66.30;24.10;;;;;;;-0.28;49.01;96462.03;5071352;28;20200;-85
2022/03/21 02:09:01;;;;;;;71.70;25.87;;;;;;;-0.18;49.47;96487.19;5053904;28;20641;-85
2022/03/21 02:11:27;;;;;;;66.97;24.07;;;;;;;-0.01;49.72;96524.84;5072120;28;20265;-85
2022/03/21 02:13:58;;;;;;;81.60;26.90;;;;;;;-0.15;49.63;96512.81;5079846;28;20155;-84
2022/03/21 02:16:29;;;;;;;68.10;23.87;;;;;;;-0.35;50.29;96494.44;5077916;28;20171;-84
2022/03/21 02:18:57;;;;;;;72.37;27.70;;;;;;;-0.48;50.34;96476.31;5071020;28;20228;-84
2022/03/21 02:21:50;;;;;;;68.00;25.00;;;;;;;-0.64;50.35;96466.16;5070766;28;20211;-83
2022/03/21 02:24:29;;;;;;;73.67;22.73;;;;;;;-0.27;50.63;96529.19;5069648;28;20193;-83
2022/03/21 02:26:57;;;;;;;68.47;25.33;;;;;;;-0.44;50.51;96514.81;5070246;28;20182;-83
2022/03/21 02:29:26;;;;;;;60.17;24.70;;;;;;;-0.39;50.87;96541.19;5070127;28;20627;-83
2022/03/21 02:31:54;;;;;;;58.77;23.23;;;;;;;-0.71;50.47;96477.03;5069461;28;20281;-83
2022/03/21 02:34:22;;;;;;;48.27;20.60;;;;;;;-0.83;50.84;96460.56;5071139;28;20217;-84
2022/03/21 02:36:48;;;;;;;46.80;20.03;;;;;;;-0.57;50.98;96513.97;5071449;28;20300;-84
2022/03/21 02:39:14;;;;;;;45.03;18.37;;;;;;;-0.69;51.39;96503.63;5071569;28;20200;-85
2022/03/21 02:41:39;;;;;;;37.17;17.03;;;;;;;-0.59;51.59;96523.56;5054658;28;20167;-84
2022/03/21 02:44:05;;;;;;;42.60;18.73;;;;;;;-0.81;50.95;96494.91;5075426;28;20159;-84
2022/03/21 02:46:30;;;;;;;40.83;17.20;;;;;;;-0.93;51.32;96475.84;5057407;28;20640;-85
2022/03/21 02:48:57;;;;;;;33.03;16.87;;;;;;;-0.88;51.16;96480.72;5057325;28;20170;-85
2022/03/21 02:51:25;;;;;;;47.23;20.80;;;;;;;-0.70;51.07;96520.06;5075150;28;20186;-84
2022/03/21 02:53:51;;;;;;;54.60;25.27;;;;;;;-0.79;51.63;96524.91;5075144;28;20174;-85
2022/03/21 02:56:20;;;;;;;52.70;22.07;;;;;;;-0.72;51.98;96553.75;5074966;28;20177;-84
2022/03/21 02:58:46;;;;;;;54.97;23.37;;;;;;;-0.91;52.84;96564.44;5062606;28;20205;-84
2022/03/21 03:01:14;;;;;;;59.63;25.03;;;;;;;-1.15;52.92;96535.84;5037697;28;20171;-84
2022/03/21 03:03:40;;;;;;;48.73;21.87;;;;;;;-1.03;53.04;96541.97;5055276;28;20175;-84
2022/03/21 03:06:06;;;;;;;49.70;24.73;;;;;;;-1.42;53.36;96508.34;5055230;28;20181;-84
2022/03/21 03:08:32;;;;;;;55.07;25.13;;;;;;;-1.15;53.63;96564.25;5037105;28;20230;-85
2022/03/21 03:10:58;;;;;;;75.23;27.27;;;;;;;-1.56;53.87;96489.38;5054463;28;20680;-84
2022/03/21 03:13:23;;;;;;;64.93;25.87;;;;;;;-1.24;53.83;96527.84;5037242;28;20202;-84
2022/03/21 03:15:49;;;;;;;68.80;31.17;;;;;;;-1.49;54.15;96494.19;5054578;28;20194;-84
2022/03/21 03:18:15;;;;;;;46.40;22.47;;;;;;;-1.55;54.03;96483.28;5063656;28;20174;-84
2022/03/21 03:20:51;;;;;;;46.00;19.00;;;;;;;-1.12;54.25;96557.25;5073339;28;20194;-84
2022/03/21 03:23:22;;;;;;;33.60;17.07;;;;;;;-1.14;53.96;96557.34;5056577;28;20174;-84
2022/03/21 03:25:57;;;;;;;36.87;18.13;;;;;;;-1.33;53.79;96524.09;5056031;28;20716;-84
2022/03/21 03:28:23;;;;;;;41.80;18.17;;;;;;;-1.15;54.03;96548.75;5075548;28;20241;-83
2022/03/21 03:30:49;;;;;;;42.97;19.90;;;;;;;-1.40;53.90;96506.50;5085320;28;20222;-83
2022/03/21 03:33:15;;;;;;;54.00;23.60;;;;;;;-1.52;55.08;96545.06;5074301;28;20225;-83
2022/03/21 03:35:41;;;;;;;48.40;20.60;;;;;;;-1.64;55.82;96537.25;5074340;28;20163;-84
2022/03/21 03:38:07;;;;;;;45.23;21.13;;;;;;;-2.02;55.56;96460.47;5074272;28;20166;-84
2022/03/21 03:40:32;;;;;;;46.33;21.70;;;;;;;-1.50;56.02;96557.06;5056382;28;20171;-83
2022/03/21 03:42:58;;;;;;;41.10;21.23;;;;;;;-1.41;56.20;96553.91;5074514;28;20643;-83
2022/03/21 03:45:25;;;;;;;60.33;24.60;;;;;;;-1.59;56.18;96550.72;5074196;28;20206;-83
2022/03/21 03:47:52;;;;;;;62.57;23.83;;;;;;;-1.54;56.76;96548.66;5074109;28;20158;-83
2022/03/21 03:50:18;;;;;;;57.77;23.40;;;;;;;-1.87;56.02;96492.22;5072583;28;20694;-82
2022/03/21 03:52:46;;;;;;;52.43;22.87;;;;;;;-1.56;55.50;96529.88;5072278;28;20536;-82
2022/03/21 03:55:13;;;;;;;51.73;23.40;;;;;;;-1.61;56.30;96511.25;5072725;28;20567;-82
2022/03/21 03:57:38;;;;;;;48.33;24.37;;;;;;;-1.40;55.88;96553.00;5073372;28;20291;-83
2022/03/21 04:00:05;;;;;;;61.87;25.37;;;;;;;-1.81;56.00;96480.69;5073974;28;20249;-83
2022/03/21 04:03:44;;;;;;;56.53;23.87;;;;;;;-1.62;56.29;96497.50;5073866;28;20155;-83
2022/03/21 04:05:16;;;;;;;54.90;26.07;;;;;;;-1.67;55.69;96489.25;5073798;28;20170;-83
2022/03/21 04:07:42;;;;;;;63.47;28.30;;;;;;;-1.73;55.70;96481.84;5073775;28;20170;-83
2022/03/21 04:10:08;;;;;;;59.90;27.30;;;;;;;-1.92;55.66;96469.28;5055501;28;20263;-83
2022/03/21 04:12:35;;;;;;;63.23;27.00;;;;;;;-1.74;56.54;96508.63;5073752;28;20159;-83
2022/03/21 04:15:00;;;;;;;70.57;30.80;;;;;;;-2.09;56.31;96440.31;5074085;28;20177;-83
2022/03/21 04:17:26;;;;;;;73.50;31.13;;;;;;;-1.54;57.23;96528.84;5073934;28;20253;-83
2022/03/21 04:19:51;;;;;;;90.37;33.10;;;;;;;-1.94;57.81;96462.56;5073552;28;20173;-83
2022/03/21 04:22:17;;;;;;;80.23;33.73;;;;;;;-1.87;57.78;96456.09;5073783;28;20245;-83
2022/03/21 04:24:42;;;;;;;74.57;33.10;;;;;;;-1.68;57.32;96486.75;5055568;28;20919;-84
2022/03/21 04:27:07;;;;;;;78.03;31.73;;;;;;;-1.42;57.24;96529.84;5055444;28;20240;-83
2022/03/21 04:29:33;;;;;;;80.23;34.60;;;;;;;-1.67;57.00;96488.41;5073714;28;20257;-84
2022/03/21 04:31:59;;;;;;;77.07;33.13;;;;;;;-1.74;57.20;96469.06;5078518;28;20737;-82
2022/03/21 04:34:24;;;;;;;72.13;32.00;;;;;;;-1.98;57.13;96453.34;5080966;28;20651;-83
2022/03/21 04:36:50;;;;;;;72.33;30.17;;;;;;;-1.76;57.28;96483.81;5054896;28;20178;-84
2022/03/21 04:39:15;;;;;;;70.90;29.47;;;;;;;-1.88;57.03;96451.03;5055194;28;20635;-84
2022/03/21 04:41:40;;;;;;;58.70;27.47;;;;;;;-2.00;57.16;96432.00;5072412;28;20178;-82
2022/03/21 04:44:06;;;;;;;59.10;29.37;;;;;;;-1.42;56.24;96519.50;5077419;28;20186;-83
2022/03/21 04:46:31;;;;;;;62.43;24.90;;;;;;;-1.40;56.17;96509.91;5080855;28;20174;-84
2022/03/21 04:48:57;;;;;;;38.13;19.53;;;;;;;-1.19;55.52;96516.28;5072401;28;20220;-84
2022/03/21 04:51:22;;;;;;;39.87;20.17;;;;;;;-1.49;54.78;96439.94;5072870;28;20591;-84
2022/03/21 04:53:48;;;;;;;39.13;18.93;;;;;;;-0.79;54.13;96526.66;5073192;28;20190;-84
2022/03/21 04:56:13;;;;;;;40.93;19.13;;;;;;;-0.59;53.62;96520.97;5054718;28;20239;-85
2022/03/21 04:58:39;;;;;;;37.10;18.80;;;;;;;-0.56;53.26;96463.91;5073028;28;20166;-84
2022/03/21 05:01:04;;;;;;;37.47;18.77;;;;;;;-0.22;52.33;96449.50;5072835;28;20159;-82
2022/03/21 05:03:30;;;;;;;39.37;17.57;;;;;;;0.37;50.70;96470.38;5055111;28;20185;-84
2022/03/21 05:05:57;;;;;;;39.20;17.37;;;;;;;0.67;49.12;96457.84;5072523;28;20241;-84
2022/03/21 05:08:22;;;;;;;34.53;16.60;;;;;;;1.35;47.43;96487.44;5072582;28;20177;-84
2022/03/21 05:10:48;;;;;;;31.87;16.50;;;;;;;2.14;46.30;96496.97;5072360;28;20202;-84
2022/03/21 05:13:14;;;;;;;39.37;18.23;;;;;;;2.82;44.77;96490.72;5072507;28;20171;-85
2022/03/21 05:15:39;;;;;;;36.90;17.77;;;;;;;4.07;43.40;96551.53;5072925;28;20627;-85
2022/03/21 05:18:05;;;;;;;71.77;28.20;;;;;;;5.06;41.00;96549.03;5072858;28;20575;-84
2022/03/21 05:20:30;;;;;;;124.50;44.13;;;;;;;5.50;38.26;96485.00;5072502;28;20173;-85
2022/03/21 05:31:08;;;;;;;50.77;19.60;;;;;;;8.86;31.83;96546.53;5071658;28;20285;-84
2022/03/21 05:36:23;;;;;;;253.23;216.60;;;;;;;9.73;30.89;96514.50;5058916;28;20186;-85
2022/03/21 05:38:49;;;;;;;1446.93;431.70;;;;;;;10.36;29.46;96539.31;5052153;28;20552;-85
2022/03/21 05:41:15;;;;;;;1999.90;999.90;;;;;;;10.92;28.28;96523.31;5058816;28;20181;-85
2022/03/21 05:43:40;;;;;;;1999.90;999.90;;;;;;;11.42;27.73;96489.59;5053539;28;20186;-84
2022/03/21 05:46:06;;;;;;;1807.13;886.83;;;;;;;12.39;26.85;96562.72;5071648;28;20644;-85
2022/03/21 05:48:51;;;;;;;1445.57;713.03;;;;;;;12.58;26.89;96509.38;5078915;28;20170;-85
2022/03/21 05:51:22;;;;;;;1296.00;685.47;;;;;;;13.50;25.24;96560.78;5052269;28;20201;-85
2022/03/21 05:53:48;;;;;;;1999.90;946.90;;;;;;;13.93;24.26;96511.34;5052033;28;20662;-85
2022/03/21 05:56:14;;;;;;;1642.23;682.40;;;;;;;14.66;23.95;96556.97;5071269;28;20705;-85
2022/03/21 05:58:41;;;;;;;1999.90;791.90;;;;;;;14.81;23.08;96509.94;5054259;28;20236;-84
2022/03/21 06:01:06;;;;;;;505.03;397.13;;;;;;;15.20;23.08;96496.06;5077609;28;20175;-85
2022/03/21 06:03:32;;;;;;;240.27;219.95;;;;;;;15.65;22.56;96501.72;5071405;28;20603;-85
2022/03/21 06:05:59;;;;;;;87.20;78.70;;;;;;;16.26;22.47;96552.84;5072203;28;20174;-85
2022/03/21 06:08:25;;;;;;;66.72;59.53;;;;;;;16.92;22.22;96556.31;5072125;28;20189;-85
2022/03/21 06:11:03;;;;;;;46.95;35.00;;;;;;;17.34;21.17;96528.31;5071682;28;20229;-86
2022/03/21 06:13:31;;;;;;;42.60;22.73;;;;;;;17.77;20.58;96497.59;5071044;28;20175;-86
2022/03/21 06:16:00;;;;;;;29.40;15.60;;;;;;;18.60;19.89;96539.00;5071615;28;20182;-86
2022/03/21 06:18:26;;;;;;;30.30;16.10;;;;;;;19.13;19.66;96527.78;5074078;28;20166;-83
2022/03/21 06:20:52;;;;;;;41.63;16.80;;;;;;;19.63;18.51;96504.41;5075918;28;20651;-84
2022/03/21 06:23:17;;;;;;;36.83;16.65;;;;;;;20.13;18.22;96488.84;5075592;28;20164;-84
2022/03/21 06:25:43;;;;;;;36.38;15.85;;;;;;;20.63;17.80;96564.19;5057268;28;20654;-84
2022/03/21 06:28:08;;;;;;;28.35;16.38;;;;;;;20.56;16.90;96517.16;5075264;28;20182;-84
2022/03/21 06:30:34;;;;;;;32.17;16.23;;;;;;;20.61;16.98;96528.78;5056800;28;20671;-83
2022/03/21 06:33:00;;;;;;;54.25;17.83;;;;;;;20.99;17.09;96557.78;5073151;28;20644;-82
2022/03/21 06:35:25;;;;;;;33.80;15.10;;;;;;;21.08;16.50;96556.38;5057474;28;20174;-82
2022/03/21 06:37:51;;;;;;;33.33;14.57;;;;;;;21.38;16.50;96508.00;5057494;28;20224;-82
2022/03/21 06:40:16;;;;;;;31.05;14.55;;;;;;;21.49;15.34;96471.50;5075793;28;20687;-88
2022/03/21 06:42:42;;;;;;;21.95;13.13;;;;;;;21.62;15.57;96515.97;5057394;28;20575;-88
2022/03/21 06:45:08;;;;;;;21.48;13.57;;;;;;;21.99;15.28;96490.38;5057087;28;20178;-88
2022/03/21 06:47:34;;;;;;;22.90;12.93;;;;;;;21.70;15.26;96491.47;5075178;28;20261;-88
2022/03/21 06:50:00;;;;;;;19.33;12.23;;;;;;;22.07;14.59;96540.13;5056770;28;20253;-86
2022/03/21 06:52:25;;;;;;;19.85;12.85;;;;;;;21.65;15.41;96502.06;5057308;28;20170;-87
2022/03/21 06:54:51;;;;;;;17.38;11.15;;;;;;;21.20;15.91;96477.88;5074963;28;20181;-85
2022/03/21 06:57:17;;;;;;;23.05;11.40;;;;;;;21.02;15.99;96535.06;5056939;28;20170;-86
2022/03/21 06:59:47;;;;;;;17.08;10.43;;;;;;;20.63;15.91;96529.38;5057050;28;20202;-86
2022/03/21 07:02:14;;;;;;;18.98;10.20;;;;;;;20.45;15.87;96550.06;5084729;28;20170;-85
2022/03/21 07:04:40;;;;;;;17.98;8.38;;;;;;;16.91;16.73;96500.63;5061592;28;20232;-85
2022/03/21 07:07:05;;;;;;;15.48;8.15;;;;;;;15.01;18.45;96502.91;5074760;28;20178;-87
2022/03/21 07:09:31;;;;;;;12.60;8.70;;;;;;;14.47;19.49;96467.53;5072262;28;20331;-88
2022/03/21 07:11:56;;;;;;;14.02;8.23;;;;;;;14.30;20.05;96416.66;5074755;28;20228;-87
2022/03/21 07:14:22;;;;;;;12.85;8.15;;;;;;;14.63;20.40;96491.91;5068238;28;20170;-88
2022/03/21 07:16:48;;;;;;;16.88;9.93;;;;;;;15.62;20.78;96539.28;5059763;28;20209;-83
2022/03/21 07:19:14;;;;;;;16.05;9.48;;;;;;;15.33;19.04;96493.44;5074460;28;20257;-84
2022/03/21 07:21:40;;;;;;;17.45;10.02;;;;;;;15.25;20.35;96498.91;5074285;28;20205;-84
2022/03/21 07:24:07;;;;;;;16.30;9.88;;;;;;;15.52;20.35;96522.88;5052705;28;20655;-83
2022/03/21 07:26:33;;;;;;;23.07;11.10;;;;;;;15.42;19.60;96502.03;5073827;28;20162;-83
2022/03/21 07:28:59;;;;;;;18.13;10.30;;;;;;;14.73;19.44;96512.75;5055811;28;20162;-84
2022/03/21 07:31:24;;;;;;;15.90;9.63;;;;;;;14.06;20.52;96473.56;5055713;28;20221;-83
2022/03/21 07:33:50;;;;;;;19.87;9.63;;;;;;;13.76;21.13;96472.91;5073731;28;20226;-82
2022/03/21 07:36:16;;;;;;;16.47;8.20;;;;;;;13.48;21.00;96519.66;5073467;28;20715;-83
2022/03/21 07:38:41;;;;;;;18.33;8.87;;;;;;;13.17;21.46;96525.22;5055433;28;20565;-84
2022/03/21 07:41:07;;;;;;;14.20;8.97;;;;;;;12.21;21.83;96454.78;5072725;28;20684;-83
2022/03/21 07:43:37;;;;;;;17.10;9.73;;;;;;;12.13;22.24;96530.63;5054337;28;20174;-84
2022/03/21 07:48:48;;;;;;;13.70;8.00;;;;;;;11.43;22.50;96464.88;5071080;28;20177;-83
2022/03/21 07:51:14;;;;;;;12.27;7.73;;;;;;;11.44;23.04;96514.81;5072637;28;20679;-82
2022/03/21 07:53:41;;;;;;;11.13;7.20;;;;;;;11.34;24.31;96472.00;5073369;28;20228;-84
2022/03/21 07:56:06;;;;;;;14.53;7.40;;;;;;;11.95;24.11;96513.28;5055385;28;21037;-83
2022/03/21 07:58:32;;;;;;;15.53;8.57;;;;;;;12.01;23.29;96443.16;5055653;28;20261;-81
2022/03/21 08:01:01;;;;;;;12.67;7.67;;;;;;;12.36;22.68;96486.53;5073392;28;20174;-84
2022/03/21 08:03:28;;;;;;;14.33;7.47;;;;;;;12.02;22.63;96447.44;5055123;28;20189;-83
2022/03/21 08:05:54;;;;;;;11.73;7.57;;;;;;;12.28;23.79;96502.44;5054643;28;20198;-84
2022/03/21 08:08:22;;;;;;;14.20;7.07;;;;;;;11.95;22.83;96449.13;5067464;28;20178;-85
2022/03/21 08:10:48;;;;;;;15.67;7.67;;;;;;;11.93;23.31;96438.78;5072813;28;20281;-84
2022/03/21 08:13:17;;;;;;;18.07;8.07;;;;;;;11.03;23.46;96411.44;5054660;28;20273;-82
2022/03/21 08:15:46;;;;;;;17.17;8.60;;;;;;;10.76;24.63;96493.59;5061037;28;20174;-83
2022/03/21 08:18:13;;;;;;;15.17;7.43;;;;;;;10.45;24.87;96493.56;5063314;28;20178;-86
2022/03/21 08:20:39;;;;;;;14.40;8.33;;;;;;;9.77;25.78;96480.81;5072992;28;20173;-81
2022/03/21 08:23:13;;;;;;;12.33;6.93;;;;;;;9.91;25.60;96487.22;5072546;28;20174;-84
2022/03/21 08:25:41;;;;;;;16.13;8.70;;;;;;;9.93;25.68;96496.59;5072849;28;20174;-82
2022/03/21 08:28:08;;;;;;;17.87;7.97;;;;;;;9.62;26.12;96464.03;5055725;28;20182;-81
2022/03/21 08:30:35;;;;;;;15.80;7.73;;;;;;;9.59;26.14;96438.09;5075842;28;20195;-85
2022/03/21 08:33:03;;;;;;;12.30;8.07;;;;;;;9.73;26.15;96485.59;5050867;28;20213;-86
2022/03/21 08:35:32;;;;;;;15.03;7.53;;;;;;;9.66;26.76;96463.56;5072595;28;20178;-83
2022/03/21 08:37:59;;;;;;;15.93;7.60;;;;;;;9.89;25.73;96471.59;5072452;28;20247;-84
2022/03/21 08:40:24;;;;;;;13.23;7.60;;;;;;;9.90;26.50;96481.13;5072028;28;20174;-84
2022/03/21 08:42:50;;;;;;;14.33;8.23;;;;;;;9.66;26.69;96420.69;5072305;28;20548;-85
2022/03/21 08:45:15;;;;;;;16.63;7.77;;;;;;;9.97;26.92;96387.41;5072603;28;20167;-84
2022/03/21 08:47:42;;;;;;;12.87;7.83;;;;;;;10.45;26.35;96451.44;5054321;28;20761;-83
2022/03/21 08:50:09;;;;;;;17.20;8.73;;;;;;;10.85;25.89;96479.41;5048941;28;20205;-83
2022/03/21 08:52:36;;;;;;;14.00;7.80;;;;;;;10.32;25.30;96364.28;5054248;28;20178;-83
2022/03/21 08:55:02;;;;;;;21.30;8.43;;;;;;;11.07;25.96;96438.28;5072514;28;20173;-83
2022/03/21 08:57:28;;;;;;;8.90;6.07;;;;;;;10.80;25.00;96474.66;5072748;28;20577;-85
2022/03/21 08:59:53;;;;;;;10.03;6.43;;;;;;;10.27;25.60;96466.63;5054923;28;20173;-83
2022/03/21 09:02:20;;;;;;;14.57;6.83;;;;;;;9.71;26.51;96397.31;5072163;28;20185;-83
2022/03/21 09:04:45;;;;;;;16.57;7.33;;;;;;;9.73;26.67;96417.22;5072772;28;20159;-82
2022/03/21 09:07:14;;;;;;;11.27;6.10;;;;;;;9.95;26.36;96470.91;5071939;28;20182;-84
2022/03/21 09:09:40;;;;;;;14.33;6.80;;;;;;;9.65;26.22;96429.53;5054212;28;20181;-82
2022/03/21 09:12:08;;;;;;;11.07;6.17;;;;;;;9.98;26.63;96431.13;5072198;28;20270;-84
2022/03/21 09:14:34;;;;;;;13.53;6.93;;;;;;;10.11;26.55;96430.63;5054585;28;20174;-84
2022/03/21 09:17:01;;;;;;;10.77;6.80;;;;;;;10.07;26.64;96476.66;5054263;28;20202;-82
2022/03/21 09:19:29;;;;;;;12.50;6.33;;;;;;;9.78;27.02;96477.19;5072221;28;20240;-83
2022/03/21 09:21:55;;;;;;;13.67;6.57;;;;;;;9.27;27.22;96378.47;5072027;28;20206;-82
2022/03/21 09:24:22;;;;;;;9.97;6.27;;;;;;;9.46;26.72;96442.03;5072779;28;20170;-81
2022/03/21 09:26:48;;;;;;;13.23;6.07;;;;;;;9.50;27.38;96471.47;5071142;28;20174;-81
2022/03/21 09:29:14;;;;;;;11.37;6.33;;;;;;;9.32;26.81;96419.06;5070463;28;20179;-82
2022/03/21 09:31:40;;;;;;;11.07;6.27;;;;;;;9.34;26.97;96474.09;5072877;28;20883;-82
2022/03/21 09:34:17;;;;;;;11.07;6.13;;;;;;;9.39;27.62;96461.25;5071674;28;20726;-83
2022/03/21 09:36:44;;;;;;;10.67;6.43;;;;;;;9.37;26.88;96474.56;5070104;28;20246;-84
2022/03/21 09:39:12;;;;;;;12.03;6.53;;;;;;;8.97;27.37;96458.75;5053235;28;20174;-83
2022/03/21 09:41:38;;;;;;;14.10;6.17;;;;;;;8.37;27.79;96432.63;5070861;28;20305;-82
2022/03/21 09:44:09;;;;;;;7.77;5.33;;;;;;;7.97;27.79;96418.31;5076279;28;20194;-84
2022/03/21 09:46:42;;;;;;;12.13;6.60;;;;;;;8.32;28.19;96487.38;5053342;28;20264;-83
2022/03/21 09:49:10;;;;;;;9.60;5.93;;;;;;;7.90;28.97;96488.09;5070858;28;20259;-85
2022/03/21 09:51:39;;;;;;;8.20;5.33;;;;;;;7.63;28.97;96475.09;5051800;28;20201;-85
2022/03/21 09:54:05;;;;;;;13.60;7.00;;;;;;;6.87;29.67;96377.91;5071892;28;20177;-85
2022/03/21 09:56:31;;;;;;;13.13;6.40;;;;;;;6.98;29.88;96414.34;5071193;28;20198;-83
2022/03/21 09:58:59;;;;;;;11.17;5.70;;;;;;;7.41;29.61;96472.97;5053955;28;20552;-83
2022/03/21 10:01:26;;;;;;;9.73;6.47;;;;;;;7.19;29.65;96420.06;5071623;28;20166;-84
2022/03/21 10:03:53;;;;;;;10.47;6.47;;;;;;;7.24;30.28;96406.53;5071557;28;20559;-84
2022/03/21 10:06:33;;;;;;;10.83;6.53;;;;;;;7.76;30.08;96451.13;5087206;28;20262;-83
2022/03/21 10:09:06;;;;;;;10.70;6.00;;;;;;;7.84;29.52;96461.66;5054064;28;20331;-84
2022/03/21 10:11:32;;;;;;;13.43;6.80;;;;;;;7.63;29.49;96437.59;5072572;28;20198;-82
2022/03/21 10:14:00;;;;;;;14.63;6.57;;;;;;;7.20;29.76;96420.88;5071927;28;20839;-85
2022/03/21 10:16:26;;;;;;;11.73;5.93;;;;;;;6.99;30.19;96428.25;5071588;28;20185;-87
2022/03/21 10:18:54;;;;;;;12.77;6.33;;;;;;;7.37;30.80;96454.09;5071697;28;20188;-86
2022/03/21 10:21:26;;;;;;;12.30;5.97;;;;;;;7.43;29.92;96416.84;5048804;28;20714;-85
2022/03/21 10:24:10;;;;;;;9.77;5.97;;;;;;;7.86;29.34;96444.81;5041348;28;20252;-83
2022/03/21 10:26:40;;;;;;;8.93;6.17;;;;;;;7.82;29.26;96459.19;5051950;28;20159;-85
2022/03/21 10:29:10;;;;;;;13.30;7.43;;;;;;;7.47;29.16;96427.81;5070480;28;20182;-85
2022/03/21 10:31:40;;;;;;;10.90;6.37;;;;;;;7.58;30.68;96467.72;5070774;28;20189;-86
2022/03/21 10:34:11;;;;;;;10.33;6.20;;;;;;;7.29;30.17;96385.09;5053413;28;20699;-83
2022/03/21 10:37:02;;;;;;;12.40;6.53;;;;;;;7.71;30.65;96432.41;5070789;28;20170;-86
2022/03/21 10:39:29;;;;;;;11.27;6.23;;;;;;;7.86;30.41;96436.94;5070754;28;20173;-83
2022/03/21 10:42:00;;;;;;;13.40;6.33;;;;;;;8.04;30.67;96442.13;5070740;28;20205;-88
2022/03/21 10:44:26;;;;;;;12.53;6.47;;;;;;;8.22;30.85;96431.53;5048325;28;20194;-84
2022/03/21 10:46:59;;;;;;;17.20;6.73;;;;;;;7.85;29.27;96374.19;5060713;28;20182;-85
2022/03/21 10:49:38;;;;;;;12.57;6.37;;;;;;;8.27;29.52;96421.41;5054677;28;20175;-85
2022/03/21 10:52:06;;;;;;;10.17;7.10;;;;;;;8.28;28.99;96423.06;5071112;28;20585;-86
2022/03/21 10:54:50;;;;;;;10.77;6.03;;;;;;;8.04;29.18;96423.78;5071110;28;20167;-84
2022/03/21 10:57:33;;;;;;;10.00;6.37;;;;;;;7.71;29.01;96429.78;5068720;28;20170;-87
2022/03/21 11:00:12;;;;;;;132.77;14.77;;;;;;;7.41;29.89;96410.09;5075947;28;20206;-83
2022/03/21 11:02:51;;;;;;;23.20;6.67;;;;;;;7.49;30.02;96418.00;5071770;28;20178;-87
2022/03/21 11:05:19;;;;;;;12.13;6.93;;;;;;;7.25;30.31;96368.06;5072781;28;20167;-85
2022/03/21 11:07:45;;;;;;;11.67;6.47;;;;;;;7.50;29.87;96419.66;5074282;28;20685;-87
2022/03/21 11:10:11;;;;;;;12.13;6.00;;;;;;;7.30;29.66;96345.66;5055181;28;20179;-88
2022/03/21 11:12:38;;;;;;;12.97;6.83;;;;;;;7.73;29.89;96418.16;5052025;28;20174;-89
2022/03/21 11:15:06;;;;;;;11.63;6.37;;;;;;;7.32;29.43;96345.53;5053613;28;20696;-89
2022/03/21 11:17:33;;;;;;;10.70;5.97;;;;;;;7.54;29.94;96371.19;5053352;28;20193;-90
2022/03/21 11:20:02;;;;;;;13.60;6.87;;;;;;;7.91;29.74;96384.84;5052427;28;20183;-89
2022/03/21 11:22:29;;;;;;;58.10;14.07;;;;;;;7.60;29.45;96352.25;5070824;28;20170;-88
2022/03/21 11:25:00;;;;;;;10.13;6.23;;;;;;;7.60;29.09;96339.16;5070663;28;20179;-90
2022/03/21 11:27:46;;;;;;;14.30;9.00;;;;;;;7.74;29.47;96388.38;5070893;28;20246;-90
2022/03/21 11:30:18;;;;;;;9.17;7.13;;;;;;;7.61;29.32;96387.94;5071225;28;20192;-88
2022/03/21 11:33:08;;;;;;;9.67;5.53;;;;;;;7.51;30.42;96387.25;5070690;28;20742;-89
2022/03/21 11:35:34;;;;;;;9.53;6.23;;;;;;;7.61;30.32;96351.25;5054260;28;20236;-89
2022/03/21 11:38:22;;;;;;;16.07;13.27;;;;;;;7.90;29.29;96372.72;5070303;28;20178;-89
2022/03/21 11:40:48;;;;;;;11.83;6.00;;;;;;;7.62;29.80;96329.31;5054615;28;20715;-89